createdAt,value
2023-05-07T00:00:32.123Z,4.22
2023-05-07T00:05:33.662Z,3.83
2023-05-07T00:10:35.192Z,4.93
2023-05-07T00:15:36.678Z,4.63
2023-05-07T00:20:38.173Z,5.35
2023-05-07T00:25:39.665Z,5.13
2023-05-07T00:30:41.188Z,4.88
2023-05-07T00:35:44.387Z,5.10
2023-05-07T00:40:46.353Z,5.70
2023-05-07T00:45:48.230Z,4.95
2023-05-07T00:50:49.826Z,5.68
2023-05-07T00:55:51.625Z,5.75
2023-05-07T01:00:53.216Z,4.57
2023-05-07T01:05:56.773Z,4.60
2023-05-07T01:10:59.771Z,4.47
2023-05-07T01:16:06.094Z,4.22
2023-05-07T01:21:11.832Z,3.75
2023-05-07T01:26:13.457Z,4.35
2023-05-07T01:31:17.884Z,4.15
2023-05-07T01:36:21.988Z,4.35
2023-05-07T01:41:23.533Z,4.38
2023-05-07T01:46:27.131Z,4.57
2023-05-07T01:51:28.681Z,4.97
2023-05-07T01:56:31.405Z,3.95
2023-05-07T02:01:33.353Z,4.03
2023-05-07T02:06:34.948Z,4.10
2023-05-07T02:11:39.938Z,3.38
2023-05-07T02:16:41.549Z,3.53
2023-05-07T02:21:45.687Z,4.32
2023-05-07T02:26:47.239Z,3.00
2023-05-07T02:31:53.889Z,3.83
2023-05-07T02:36:56.603Z,4.03
2023-05-07T02:42:01.049Z,3.15
2023-05-07T02:47:02.662Z,3.35
2023-05-07T02:52:04.755Z,3.53
2023-05-07T02:57:06.370Z,3.33
2023-05-07T03:02:07.969Z,4.05
2023-05-07T03:07:09.553Z,3.67
2023-05-07T03:12:11.125Z,4.18
2023-05-07T03:17:12.875Z,3.95
2023-05-07T03:22:14.907Z,3.60
2023-05-07T03:27:16.740Z,3.35
2023-05-07T03:32:18.845Z,4.28
2023-05-07T03:37:20.858Z,3.22
2023-05-07T03:42:22.418Z,3.25
2023-05-07T03:47:26.664Z,2.65
2023-05-07T03:52:28.402Z,3.45
2023-05-07T03:57:33.098Z,3.60
2023-05-07T04:02:35.244Z,3.20
2023-05-07T04:07:38.215Z,3.08
2023-05-07T04:12:39.905Z,3.35
2023-05-07T04:17:43.326Z,3.10
2023-05-07T04:22:46.218Z,3.67
2023-05-07T04:27:48.365Z,2.72
2023-05-07T04:32:51.419Z,3.10
2023-05-07T04:37:53.197Z,3.63
2023-05-07T04:42:54.822Z,3.42
2023-05-07T04:47:57.182Z,3.70
2023-05-07T04:52:59.027Z,3.05
2023-05-07T04:58:02.466Z,5.07
2023-05-07T05:03:07.882Z,3.13
2023-05-07T05:08:10.056Z,3.63
2023-05-07T05:13:14.493Z,3.67
2023-05-07T05:18:17.211Z,3.38
2023-05-07T05:23:18.765Z,3.92
2023-05-07T05:28:20.466Z,3.90
2023-05-07T05:33:22.191Z,4.43
2023-05-07T05:57:11.363Z,2.80
2023-05-07T06:02:13.628Z,2.72
2023-05-07T06:07:16.343Z,3.20
2023-05-07T06:12:18.075Z,2.75
2023-05-07T06:17:21.594Z,3.45
2023-05-07T06:22:25.429Z,2.55
2023-05-07T06:27:27.072Z,3.30
2023-05-07T06:32:29.184Z,3.08
2023-05-07T06:37:31.052Z,3.60
2023-05-07T06:42:38.943Z,3.25
2023-05-07T06:48:03.641Z,2.92
2023-05-07T06:53:09.351Z,2.47
2023-05-07T06:58:10.996Z,3.28
2023-05-07T07:03:13.403Z,3.17
2023-05-07T07:08:18.023Z,3.55
2023-05-07T07:13:20.586Z,2.50
2023-05-07T07:18:22.569Z,3.58
2023-05-07T07:23:25.955Z,2.63
2023-05-07T07:28:27.722Z,2.58
2023-05-07T07:33:29.586Z,2.72
2023-05-07T07:38:32.182Z,3.40
2023-05-07T07:43:33.837Z,2.58
2023-05-07T07:48:35.736Z,2.78
2023-05-07T07:53:37.274Z,3.30
2023-05-07T07:58:40.125Z,3.13
2023-05-07T08:03:41.961Z,2.55
2023-05-07T08:08:44.041Z,2.70
2023-05-07T08:13:46.774Z,2.60
2023-05-07T08:18:48.335Z,2.90
2023-05-07T08:23:50.239Z,3.17
2023-05-07T08:28:52.340Z,3.03
2023-05-07T08:33:53.952Z,3.95
2023-05-07T08:38:55.877Z,3.15
2023-05-07T08:43:59.889Z,3.10
2023-05-07T08:49:01.991Z,3.08
2023-05-07T08:54:04.020Z,3.25
2023-05-07T08:59:08.776Z,3.25
2023-05-07T09:04:10.828Z,3.75
2023-05-07T09:09:18.350Z,2.65
2023-05-07T09:14:22.804Z,3.70
2023-05-07T09:19:25.997Z,3.67
2023-05-07T09:24:35.869Z,3.08
2023-05-07T09:29:39.142Z,3.05
2023-05-07T09:34:43.055Z,3.45
2023-05-07T09:39:47.404Z,3.03
2023-05-07T09:44:51.773Z,3.15
2023-05-07T09:49:58.901Z,3.33
2023-05-07T09:55:01.635Z,2.75
2023-05-07T10:00:06.327Z,3.83
2023-05-07T10:05:26.135Z,2.70
2023-05-07T10:10:33.492Z,3.15
2023-05-07T10:15:35.892Z,2.80
2023-05-07T10:20:40.145Z,2.50
2023-05-07T10:25:44.393Z,2.97
2023-05-07T10:31:24.477Z,2.92
2023-05-07T10:36:27.349Z,4.38
2023-05-07T10:41:29.230Z,3.42
2023-05-07T10:46:34.204Z,2.90
2023-05-07T10:51:42.820Z,3.40
2023-05-07T10:56:56.445Z,3.22
2023-05-07T11:02:05.186Z,3.42
2023-05-07T11:07:29.259Z,3.60
2023-05-07T11:12:39.466Z,3.35
2023-05-07T11:18:00.613Z,4.03
2023-05-07T11:23:07.753Z,3.20
2023-05-07T11:28:14.919Z,3.10
2023-05-07T11:33:24.052Z,3.47
2023-05-07T11:38:28.654Z,3.58
2023-05-07T11:43:30.285Z,3.67
2023-05-07T11:48:32.705Z,3.33
2023-05-07T11:53:39.217Z,3.53
2023-05-07T11:58:42.351Z,3.65
2023-05-07T12:03:46.908Z,3.72
2023-05-07T12:08:48.770Z,3.80
2023-05-07T12:13:51.549Z,3.45
2023-05-07T12:18:55.853Z,3.63
2023-05-07T12:23:57.555Z,3.08
2023-05-07T12:28:59.271Z,3.72
2023-05-07T12:34:00.972Z,4.00
2023-05-07T12:39:02.745Z,3.47
2023-05-07T12:44:06.016Z,3.53
2023-05-07T12:49:07.531Z,2.97
2023-05-07T12:54:09.047Z,3.35
2023-05-07T12:59:10.778Z,3.42
2023-05-07T13:04:12.390Z,2.88
2023-05-07T13:09:13.886Z,3.70
2023-05-07T13:14:15.976Z,3.50
2023-05-07T13:19:18.381Z,3.30
2023-05-07T13:24:20.032Z,3.30
2023-05-07T13:29:26.403Z,3.08
2023-05-07T13:34:29.076Z,3.30
2023-05-07T13:39:30.829Z,2.90
2023-05-07T13:44:32.335Z,2.40
2023-05-07T13:49:33.835Z,2.95
2023-05-07T13:54:35.319Z,2.83
2023-05-07T13:59:36.774Z,3.00
2023-05-07T14:04:38.799Z,2.95
2023-05-07T14:09:40.461Z,2.55
2023-05-07T14:14:41.988Z,3.17
2023-05-07T14:19:43.892Z,2.83
2023-05-07T14:24:46.867Z,3.00
2023-05-07T14:29:52.166Z,2.67
2023-05-07T14:34:53.791Z,2.80
2023-05-07T14:39:55.333Z,2.40
2023-05-07T14:44:56.868Z,2.70
2023-05-07T14:49:59.296Z,2.30
2023-05-07T14:55:01.176Z,2.85
2023-05-07T15:00:05.644Z,2.50
2023-05-07T15:05:07.532Z,2.25
2023-05-07T15:10:09.443Z,1.90
2023-05-07T15:15:11.578Z,2.80
2023-05-07T15:20:13.352Z,2.60
2023-05-07T15:25:15.207Z,2.60
2023-05-07T15:30:17.055Z,3.22
2023-05-07T15:35:22.619Z,2.70
2023-05-07T15:50:27.634Z,2.77
2023-05-07T15:55:29.171Z,3.33
2023-05-07T16:00:30.763Z,2.88
2023-05-07T16:05:32.238Z,3.00
2023-05-07T16:10:33.716Z,2.63
2023-05-07T16:15:35.880Z,3.20
2023-05-07T16:20:37.772Z,2.53
2023-05-07T16:25:39.316Z,2.92
2023-05-07T16:30:40.857Z,2.50
2023-05-07T16:40:45.574Z,2.92
2023-05-07T16:50:48.707Z,3.17
2023-05-07T16:55:50.358Z,3.05
2023-05-07T17:00:51.858Z,3.15
2023-05-07T17:05:53.406Z,2.97
2023-05-07T17:10:55.033Z,2.80
2023-05-07T17:15:56.637Z,2.40
2023-05-07T17:20:58.137Z,2.67
2023-05-07T17:25:59.623Z,2.60
2023-05-07T17:31:01.399Z,2.55
2023-05-07T17:36:03.206Z,2.80
2023-05-07T17:41:04.762Z,2.00
2023-05-07T17:46:08.646Z,2.72
2023-05-07T17:51:10.220Z,2.35
2023-05-07T17:56:12.030Z,2.40
2023-05-07T18:01:14.030Z,2.50
2023-05-07T18:06:18.895Z,2.53
2023-05-07T18:11:21.832Z,2.15
2023-05-07T18:16:23.397Z,2.67
2023-05-07T18:21:25.037Z,2.00
2023-05-07T18:26:26.574Z,2.25
2023-05-07T18:31:28.079Z,2.28
2023-05-07T18:36:29.617Z,2.13
2023-05-07T18:41:31.342Z,2.00
2023-05-07T18:46:33.042Z,2.22
2023-05-07T18:51:34.585Z,2.42
2023-05-07T18:56:36.061Z,2.55
2023-05-07T19:01:37.599Z,2.50
2023-05-07T19:06:39.238Z,2.28
2023-05-07T19:11:40.723Z,1.90
2023-05-07T19:16:42.321Z,1.50
2023-05-07T19:21:43.841Z,2.47
2023-05-07T19:26:45.406Z,2.40
2023-05-07T19:31:46.980Z,2.30
2023-05-07T19:36:48.535Z,2.40
2023-05-07T19:41:50.557Z,2.10
2023-05-07T19:46:52.677Z,1.67
2023-05-07T19:51:54.387Z,2.10
2023-05-07T19:56:56.636Z,2.20
2023-05-07T20:01:58.245Z,2.20
2023-05-07T20:07:00.036Z,1.95
2023-05-07T20:12:01.787Z,2.05
2023-05-07T20:17:03.253Z,2.17
2023-05-07T20:22:04.790Z,2.20
2023-05-07T20:27:06.454Z,1.60
2023-05-07T20:32:08.019Z,2.05
2023-05-07T20:37:14.095Z,1.90
2023-05-07T20:42:15.697Z,1.80
2023-05-07T20:47:17.479Z,2.22
2023-05-07T20:52:19.404Z,1.33
2023-05-07T20:57:20.916Z,2.38
2023-05-07T21:02:22.419Z,2.03
2023-05-07T21:07:24.011Z,1.98
2023-05-07T21:12:25.717Z,1.92
2023-05-07T21:17:28.921Z,2.08
2023-05-07T21:22:30.657Z,1.92
2023-05-07T21:27:32.282Z,2.22
2023-05-07T21:32:34.158Z,1.83
2023-05-07T21:37:35.701Z,1.90
2023-05-07T21:42:37.213Z,2.15
2023-05-07T21:47:38.832Z,2.00
2023-05-07T21:52:40.300Z,2.00
2023-05-07T21:57:47.981Z,2.05
2023-05-07T22:02:56.073Z,1.70
2023-05-07T22:07:57.694Z,1.40
2023-05-07T22:12:59.221Z,2.10
2023-05-07T22:18:00.926Z,2.20
2023-05-07T22:23:02.399Z,1.83
2023-05-07T22:28:04.056Z,1.88
2023-05-07T22:33:06.186Z,2.20
2023-05-07T22:38:07.757Z,1.75
2023-05-07T22:43:09.335Z,1.80
2023-05-07T22:48:10.959Z,2.08
2023-05-07T22:53:12.494Z,2.30
2023-05-07T22:58:14.153Z,2.50
2023-05-07T23:03:15.815Z,2.22
2023-05-07T23:08:17.471Z,2.35
2023-05-07T23:13:19.046Z,2.25
2023-05-07T23:18:20.640Z,2.00
2023-05-07T23:23:22.180Z,1.73
2023-05-07T23:28:23.855Z,2.22
2023-05-07T23:33:25.461Z,1.75
2023-05-07T23:38:27.218Z,2.03
2023-05-07T23:43:29.406Z,1.85
2023-05-07T23:48:31.271Z,1.80
2023-05-07T23:53:32.764Z,1.80
2023-05-07T23:58:34.253Z,2.00
